createdAt,value
2017-10-06T00:00:56.285Z,9.46
2017-10-06T00:01:56.246Z,9.44
2017-10-06T00:02:56.210Z,9.46
2017-10-06T00:03:56.170Z,9.46
2017-10-06T00:04:56.139Z,9.54
2017-10-06T00:05:56.103Z,9.44
2017-10-06T00:06:56.067Z,9.48
2017-10-06T00:07:56.025Z,9.47
2017-10-06T00:08:55.994Z,9.29
2017-10-06T00:09:55.959Z,9.29
2017-10-06T00:10:55.920Z,9.43
2017-10-06T00:11:55.885Z,9.31
2017-10-06T00:12:55.848Z,9.29
2017-10-06T00:13:55.813Z,9.23
2017-10-06T00:14:55.779Z,9.21
2017-10-06T00:15:55.740Z,9.21
2017-10-06T00:16:55.705Z,9.21
2017-10-06T00:17:55.669Z,9.18
2017-10-06T00:18:55.630Z,9.25
2017-10-06T00:19:55.596Z,9.16
2017-10-06T00:20:55.562Z,9.18
2017-10-06T00:21:55.524Z,9.10
2017-10-06T00:22:55.487Z,9.11
2017-10-06T00:23:55.451Z,9.10
2017-10-06T00:24:55.415Z,9.08
2017-10-06T00:25:55.378Z,9.11
2017-10-06T00:26:55.345Z,9.02
2017-10-06T00:27:55.306Z,9.06
2017-10-06T00:28:55.270Z,9.03
2017-10-06T00:29:55.235Z,8.99
2017-10-06T00:30:55.196Z,8.99
2017-10-06T00:31:55.160Z,8.88
2017-10-06T00:32:55.123Z,8.89
2017-10-06T00:33:55.085Z,8.92
2017-10-06T00:34:55.051Z,8.99
2017-10-06T00:35:55.014Z,9.03
2017-10-06T00:36:54.978Z,8.92
2017-10-06T00:37:54.942Z,8.95
2017-10-06T00:38:54.905Z,9.00
2017-10-06T00:39:54.869Z,9.02
2017-10-06T00:40:54.833Z,8.97
2017-10-06T00:41:54.795Z,8.88
2017-10-06T00:42:54.763Z,8.95
2017-10-06T00:43:54.723Z,9.00
2017-10-06T00:44:54.685Z,9.02
2017-10-06T00:45:54.649Z,9.00
2017-10-06T00:46:54.613Z,8.95
2017-10-06T00:47:54.575Z,9.03
2017-10-06T00:48:54.540Z,9.00
2017-10-06T00:49:54.504Z,9.02
2017-10-06T00:50:54.466Z,8.97
2017-10-06T00:51:54.429Z,9.00
2017-10-06T00:52:54.394Z,9.08
2017-10-06T00:53:54.360Z,9.11
2017-10-06T00:54:54.320Z,9.25
2017-10-06T00:55:54.283Z,9.16
2017-10-06T00:56:54.249Z,9.10
2017-10-06T00:57:54.211Z,9.14
2017-10-06T00:58:54.175Z,9.13
2017-10-06T00:59:54.136Z,9.06
2017-10-06T01:00:54.102Z,8.99
2017-10-06T01:01:54.069Z,9.02
2017-10-06T01:02:54.028Z,8.94
2017-10-06T01:03:53.992Z,8.97
2017-10-06T01:04:53.957Z,8.97
2017-10-06T01:05:53.919Z,9.02
2017-10-06T01:06:53.880Z,9.11
2017-10-06T01:07:53.845Z,9.03
2017-10-06T01:08:53.810Z,9.00
2017-10-06T01:09:53.772Z,8.97
2017-10-06T01:10:53.734Z,9.00
2017-10-06T01:11:53.694Z,8.94
2017-10-06T01:12:53.661Z,9.02
2017-10-06T01:13:53.627Z,9.08
2017-10-06T01:14:53.587Z,9.06
2017-10-06T01:15:53.554Z,9.10
2017-10-06T01:16:53.516Z,9.10
2017-10-06T01:17:53.479Z,8.99
2017-10-06T01:18:53.444Z,8.92
2017-10-06T01:19:53.405Z,8.94
2017-10-06T01:20:53.369Z,8.88
2017-10-06T01:21:53.333Z,8.94
2017-10-06T01:22:53.296Z,8.99
2017-10-06T01:23:53.259Z,8.99
2017-10-06T01:24:53.222Z,8.95
2017-10-06T01:25:53.187Z,8.99
2017-10-06T01:26:53.150Z,8.88
2017-10-06T01:27:53.113Z,8.91
2017-10-06T01:28:53.082Z,8.79
2017-10-06T01:29:53.040Z,8.76
2017-10-06T01:30:53.003Z,8.92
2017-10-06T01:31:52.976Z,8.91
2017-10-06T01:32:52.931Z,8.89
2017-10-06T01:33:52.895Z,8.79
2017-10-06T01:34:52.857Z,8.89
2017-10-06T01:35:52.821Z,8.85
2017-10-06T01:36:52.784Z,8.79
2017-10-06T01:37:52.748Z,8.76
2017-10-06T01:38:52.711Z,8.84
2017-10-06T01:39:52.674Z,8.95
2017-10-06T01:40:52.637Z,8.94
2017-10-06T01:41:52.601Z,8.94
2017-10-06T01:42:52.564Z,8.85
2017-10-06T01:43:52.526Z,8.97
2017-10-06T01:44:52.491Z,8.99
2017-10-06T01:45:52.454Z,8.99
2017-10-06T01:46:52.419Z,9.03
2017-10-06T01:47:52.382Z,9.00
2017-10-06T01:48:52.346Z,8.87
2017-10-06T01:49:52.307Z,8.89
2017-10-06T01:50:52.271Z,8.81
2017-10-06T01:51:52.235Z,8.87
2017-10-06T01:52:52.198Z,8.69
2017-10-06T01:53:52.160Z,8.63
2017-10-06T01:54:52.122Z,8.70
2017-10-06T01:55:52.088Z,8.73
2017-10-06T01:56:52.051Z,8.76
2017-10-06T01:57:52.014Z,8.70
2017-10-06T01:58:51.978Z,8.71
2017-10-06T01:59:51.942Z,8.58
2017-10-06T02:00:51.904Z,8.58
2017-10-06T02:01:51.868Z,8.53
2017-10-06T02:02:51.831Z,8.56
2017-10-06T02:03:51.794Z,8.53
2017-10-06T02:04:51.758Z,8.60
2017-10-06T02:05:51.721Z,8.60
2017-10-06T02:06:51.684Z,8.60
2017-10-06T02:07:51.648Z,8.66
2017-10-06T02:08:51.612Z,8.66
2017-10-06T02:09:51.573Z,8.66
2017-10-06T02:10:51.539Z,8.55
2017-10-06T02:11:51.502Z,8.69
2017-10-06T02:12:51.465Z,8.66
2017-10-06T02:13:51.428Z,8.67
2017-10-06T02:14:51.390Z,8.67
2017-10-06T02:15:51.351Z,8.74
2017-10-06T02:16:51.317Z,8.73
2017-10-06T02:17:51.281Z,8.73
2017-10-06T02:18:51.239Z,8.74
2017-10-06T02:19:51.205Z,8.70
2017-10-06T02:20:51.169Z,8.69
2017-10-06T02:21:51.131Z,8.64
2017-10-06T02:22:51.095Z,8.73
2017-10-06T02:23:51.059Z,8.71
2017-10-06T02:24:51.021Z,8.69
2017-10-06T02:25:50.987Z,8.70
2017-10-06T02:26:50.948Z,8.70
2017-10-06T02:27:50.912Z,8.74
2017-10-06T02:28:50.874Z,8.66
2017-10-06T02:29:50.839Z,8.66
2017-10-06T02:30:50.800Z,8.58
2017-10-06T02:31:50.764Z,8.56
2017-10-06T02:32:50.725Z,8.64
2017-10-06T02:33:50.692Z,8.73
2017-10-06T02:34:50.653Z,8.69
2017-10-06T02:35:50.616Z,8.78
2017-10-06T02:36:50.579Z,8.78
2017-10-06T02:37:50.542Z,8.74
2017-10-06T02:38:50.504Z,8.73
2017-10-06T02:39:50.469Z,8.73
2017-10-06T02:40:50.433Z,8.70
2017-10-06T02:41:50.396Z,8.85
2017-10-06T02:42:50.356Z,8.81
2017-10-06T02:43:50.321Z,8.92
2017-10-06T02:44:50.284Z,8.89
2017-10-06T02:45:50.248Z,8.92
2017-10-06T02:46:50.208Z,8.99
2017-10-06T02:47:50.173Z,9.00
2017-10-06T02:48:50.138Z,8.97
2017-10-06T02:49:50.100Z,9.03
2017-10-06T02:50:50.063Z,9.11
2017-10-06T02:51:50.022Z,9.13
2017-10-06T02:52:49.992Z,9.11
2017-10-06T02:53:49.952Z,9.14
2017-10-06T02:54:49.924Z,9.06
2017-10-06T02:55:49.878Z,9.06
2017-10-06T02:56:49.843Z,9.11
2017-10-06T02:57:49.806Z,9.06
2017-10-06T02:58:49.768Z,8.97
2017-10-06T02:59:49.732Z,9.04
2017-10-06T03:00:49.695Z,9.11
2017-10-06T03:01:49.658Z,9.10
2017-10-06T03:02:49.621Z,9.06
2017-10-06T03:03:49.586Z,9.03
2017-10-06T03:04:49.548Z,8.97
2017-10-06T03:05:49.513Z,9.08
2017-10-06T03:06:49.473Z,8.97
2017-10-06T03:07:49.440Z,8.99
2017-10-06T03:08:49.401Z,8.94
2017-10-06T03:09:49.367Z,8.84
2017-10-06T03:10:49.327Z,8.79
2017-10-06T03:11:49.292Z,8.81
2017-10-06T03:12:49.255Z,8.82
2017-10-06T03:13:49.219Z,8.79
2017-10-06T03:14:49.182Z,8.78
2017-10-06T03:15:49.144Z,8.78
2017-10-06T03:16:49.108Z,8.87
2017-10-06T03:17:49.072Z,8.81
2017-10-06T03:18:49.035Z,8.84
2017-10-06T03:19:48.996Z,8.81
2017-10-06T03:20:48.962Z,8.78
2017-10-06T03:21:48.928Z,8.85
2017-10-06T03:22:48.886Z,8.82
2017-10-06T03:23:48.851Z,8.84
2017-10-06T03:24:48.814Z,8.81
2017-10-06T03:25:48.807Z,8.76
2017-10-06T03:26:48.741Z,8.66
2017-10-06T03:27:48.706Z,8.79
2017-10-06T03:28:48.667Z,8.69
2017-10-06T03:29:48.631Z,8.70
2017-10-06T03:30:48.594Z,8.69
2017-10-06T03:31:48.555Z,8.69
2017-10-06T03:32:48.521Z,8.71
2017-10-06T03:33:48.485Z,8.69
2017-10-06T03:34:48.445Z,8.71
2017-10-06T03:35:48.409Z,8.67
2017-10-06T03:36:48.373Z,8.67
2017-10-06T03:37:48.335Z,8.74
2017-10-06T03:38:48.299Z,8.69
2017-10-06T03:39:48.262Z,8.64
2017-10-06T03:40:48.230Z,8.64
2017-10-06T03:41:48.192Z,8.60
2017-10-06T03:42:48.151Z,8.66
2017-10-06T03:43:48.121Z,8.70
2017-10-06T03:44:48.079Z,8.73
2017-10-06T03:45:48.041Z,8.69
2017-10-06T03:46:48.005Z,8.66
2017-10-06T03:47:47.966Z,8.55
2017-10-06T03:48:47.931Z,8.63
2017-10-06T03:49:47.893Z,8.70
2017-10-06T03:50:47.856Z,8.70
2017-10-06T03:51:47.821Z,8.71
2017-10-06T03:52:47.786Z,8.67
2017-10-06T03:53:47.746Z,8.67
2017-10-06T03:54:47.713Z,8.61
2017-10-06T03:55:47.673Z,8.58
2017-10-06T03:56:47.635Z,8.60
2017-10-06T03:57:47.599Z,8.52
2017-10-06T03:58:47.565Z,8.67
2017-10-06T03:59:47.519Z,8.70
2017-10-06T04:00:47.488Z,8.71
2017-10-06T04:01:47.450Z,8.71
2017-10-06T04:02:47.413Z,8.64
2017-10-06T04:03:47.376Z,8.76
2017-10-06T04:04:47.343Z,8.85
2017-10-06T04:05:47.303Z,8.94
2017-10-06T04:06:47.265Z,8.91
2017-10-06T04:07:47.229Z,8.85
2017-10-06T04:08:47.193Z,8.79
2017-10-06T04:09:47.155Z,8.85
2017-10-06T04:10:47.119Z,8.79
2017-10-06T04:11:47.090Z,8.82
2017-10-06T04:12:47.044Z,8.70
2017-10-06T04:13:47.007Z,8.85
2017-10-06T04:14:46.970Z,8.79
2017-10-06T04:15:46.935Z,8.81
2017-10-06T04:16:46.911Z,8.70
2017-10-06T04:17:46.862Z,8.71
2017-10-06T04:18:46.823Z,8.79
2017-10-06T04:19:46.786Z,8.78
2017-10-06T04:20:46.749Z,8.73
2017-10-06T04:21:46.714Z,8.79
2017-10-06T04:22:46.676Z,8.79
2017-10-06T04:23:46.637Z,8.94
2017-10-06T04:24:46.601Z,9.00
2017-10-06T04:25:46.567Z,8.97
2017-10-06T04:26:46.528Z,9.02
2017-10-06T04:27:46.489Z,9.02
2017-10-06T04:28:46.452Z,8.97
2017-10-06T04:29:46.418Z,8.95
2017-10-06T04:30:46.378Z,9.10
2017-10-06T04:31:46.342Z,9.11
2017-10-06T04:32:46.305Z,9.16
2017-10-06T04:33:46.270Z,9.16
2017-10-06T04:34:46.231Z,9.14
2017-10-06T04:35:46.193Z,9.11
2017-10-06T04:36:46.158Z,9.22
2017-10-06T04:37:46.121Z,9.14
2017-10-06T04:38:46.083Z,9.16
2017-10-06T04:39:46.045Z,9.18
2017-10-06T04:40:46.010Z,9.18
2017-10-06T04:41:45.973Z,9.21
2017-10-06T04:42:45.936Z,9.19
2017-10-06T04:43:45.900Z,9.22
2017-10-06T04:44:45.863Z,9.21
2017-10-06T04:45:45.825Z,9.22
2017-10-06T04:46:45.789Z,9.19
2017-10-06T04:47:45.752Z,9.11
2017-10-06T04:48:45.717Z,9.06
2017-10-06T04:49:45.680Z,9.26
2017-10-06T04:50:45.640Z,9.16
2017-10-06T04:51:45.604Z,9.13
2017-10-06T04:52:45.568Z,9.18
2017-10-06T04:53:45.532Z,9.22
2017-10-06T04:54:45.496Z,9.13
2017-10-06T04:55:45.458Z,9.10
2017-10-06T04:56:45.424Z,9.19
2017-10-06T04:57:45.384Z,9.14
2017-10-06T04:58:45.349Z,9.22
2017-10-06T04:59:45.312Z,9.14
2017-10-06T05:00:45.275Z,9.22
2017-10-06T05:01:45.237Z,9.23
2017-10-06T05:02:45.201Z,9.25
2017-10-06T05:03:45.164Z,9.16
2017-10-06T05:04:45.128Z,9.19
2017-10-06T05:05:45.096Z,9.22
2017-10-06T05:06:45.055Z,9.21
2017-10-06T05:07:45.019Z,9.21
2017-10-06T05:08:44.982Z,9.22
2017-10-06T05:09:44.944Z,9.23
2017-10-06T05:10:44.907Z,9.21
2017-10-06T05:11:44.871Z,9.23
2017-10-06T05:12:44.834Z,9.18
2017-10-06T05:13:44.798Z,9.23
2017-10-06T05:14:44.759Z,9.26
2017-10-06T05:15:44.722Z,9.31
2017-10-06T05:16:44.687Z,9.31
2017-10-06T05:17:44.651Z,9.29
2017-10-06T05:18:44.614Z,9.36
2017-10-06T05:19:44.578Z,9.36
2017-10-06T05:20:44.540Z,9.31
2017-10-06T05:21:44.505Z,9.31
2017-10-06T05:22:44.466Z,9.37
2017-10-06T05:23:44.430Z,9.36
2017-10-06T05:24:44.398Z,9.37
2017-10-06T05:25:44.358Z,9.41
2017-10-06T05:26:44.321Z,9.39
2017-10-06T05:27:44.285Z,9.40
2017-10-06T05:28:44.248Z,9.40
2017-10-06T05:29:44.210Z,9.34
2017-10-06T05:30:44.173Z,9.37
2017-10-06T05:31:44.137Z,9.28
2017-10-06T05:32:44.103Z,9.34
2017-10-06T05:33:44.065Z,9.31
2017-10-06T05:34:44.028Z,9.32
2017-10-06T05:35:43.991Z,9.39
2017-10-06T05:36:43.954Z,9.36
2017-10-06T05:37:43.919Z,9.32
2017-10-06T05:38:43.881Z,9.32
2017-10-06T05:39:43.845Z,9.26
2017-10-06T05:40:43.808Z,9.31
2017-10-06T05:41:43.772Z,9.25
2017-10-06T05:42:43.734Z,9.29
2017-10-06T05:43:43.697Z,9.29
2017-10-06T05:44:43.662Z,9.21
2017-10-06T05:45:43.623Z,9.29
2017-10-06T05:46:43.585Z,9.19
2017-10-06T05:47:43.554Z,9.26
2017-10-06T05:48:43.514Z,9.18
2017-10-06T05:49:43.477Z,9.26
2017-10-06T05:50:43.443Z,9.22
2017-10-06T05:51:43.405Z,9.18
2017-10-06T05:52:43.361Z,9.25
2017-10-06T05:53:43.331Z,9.22
2017-10-06T05:54:43.292Z,9.26
2017-10-06T05:55:43.257Z,9.22
2017-10-06T05:56:43.221Z,9.22
2017-10-06T05:57:43.184Z,9.26
2017-10-06T05:58:43.145Z,9.26
2017-10-06T05:59:43.109Z,9.28
2017-10-06T06:00:43.072Z,9.26
2017-10-06T06:01:43.036Z,9.22
2017-10-06T06:02:42.999Z,9.14
2017-10-06T06:03:42.961Z,9.21
2017-10-06T06:04:42.927Z,9.08
2017-10-06T06:05:42.888Z,9.13
2017-10-06T06:06:42.851Z,9.19
2017-10-06T06:07:42.816Z,9.14
2017-10-06T06:08:42.777Z,9.10
2017-10-06T06:09:42.743Z,9.18
2017-10-06T06:10:42.705Z,9.22
2017-10-06T06:11:42.668Z,9.25
2017-10-06T06:12:42.633Z,9.22
2017-10-06T06:13:42.593Z,9.19
2017-10-06T06:14:42.558Z,9.21
2017-10-06T06:15:42.523Z,9.19
2017-10-06T06:16:42.485Z,9.18
2017-10-06T06:17:42.448Z,9.13
2017-10-06T06:18:42.410Z,9.18
2017-10-06T06:19:42.375Z,9.19
2017-10-06T06:20:42.337Z,9.13
2017-10-06T06:21:42.302Z,9.11
2017-10-06T06:22:42.262Z,9.23
2017-10-06T06:23:42.228Z,9.16
2017-10-06T06:24:42.189Z,9.14
2017-10-06T06:25:42.157Z,9.13
2017-10-06T06:26:42.119Z,9.13
2017-10-06T06:27:42.079Z,9.18
2017-10-06T06:28:42.045Z,9.22
2017-10-06T06:29:42.015Z,9.26
2017-10-06T06:30:41.969Z,9.23
2017-10-06T06:31:41.934Z,9.39
2017-10-06T06:32:41.900Z,9.48
2017-10-06T06:33:41.863Z,9.56
2017-10-06T06:34:41.823Z,9.72
2017-10-06T06:35:41.788Z,9.87
2017-10-06T06:36:41.754Z,9.87
2017-10-06T06:37:41.715Z,9.98
2017-10-06T06:38:41.681Z,9.97
2017-10-06T06:39:41.645Z,10.07
2017-10-06T06:40:41.608Z,10.10
2017-10-06T06:41:41.573Z,9.97
2017-10-06T06:42:41.541Z,9.95
2017-10-06T06:43:41.502Z,9.95
2017-10-06T06:44:41.468Z,9.94
2017-10-06T06:45:41.430Z,9.86
2017-10-06T06:46:41.396Z,9.83
2017-10-06T06:47:41.357Z,9.86
2017-10-06T06:48:41.322Z,9.84
2017-10-06T06:49:41.289Z,9.91
2017-10-06T06:50:41.255Z,9.94
2017-10-06T06:51:41.216Z,9.95
2017-10-06T06:52:41.183Z,10.01
2017-10-06T06:53:41.144Z,10.09
2017-10-06T06:54:41.106Z,10.13
2017-10-06T06:55:41.073Z,10.20
2017-10-06T06:56:41.036Z,10.19
2017-10-06T06:57:41.012Z,10.15
2017-10-06T06:58:40.966Z,10.19
2017-10-06T06:59:40.931Z,10.19
2017-10-06T07:00:40.895Z,10.22
2017-10-06T07:01:40.860Z,10.31
2017-10-06T07:02:40.824Z,10.30
2017-10-06T07:03:40.789Z,10.38
2017-10-06T07:04:40.758Z,10.37
2017-10-06T07:05:40.719Z,10.53
2017-10-06T07:06:40.684Z,10.59
2017-10-06T07:07:40.650Z,10.71
2017-10-06T07:08:40.615Z,10.63
2017-10-06T07:09:40.578Z,10.56
2017-10-06T07:10:40.545Z,10.57
2017-10-06T07:11:40.511Z,10.54
2017-10-06T07:12:40.654Z,10.59
2017-10-06T07:13:40.440Z,10.54
2017-10-06T07:14:40.405Z,10.59
2017-10-06T07:15:40.371Z,10.60
2017-10-06T07:16:40.338Z,10.71
2017-10-06T07:17:40.303Z,10.82
2017-10-06T07:18:40.268Z,10.78
2017-10-06T07:19:40.233Z,10.87
2017-10-06T07:20:40.199Z,10.93
2017-10-06T07:21:40.167Z,10.87
2017-10-06T07:22:40.129Z,10.89
2017-10-06T07:23:40.095Z,10.82
2017-10-06T07:24:40.062Z,10.81
2017-10-06T07:25:40.027Z,10.84
2017-10-06T07:26:39.993Z,10.87
2017-10-06T07:27:39.958Z,10.90
2017-10-06T07:28:39.926Z,10.75
2017-10-06T07:29:39.890Z,10.72
2017-10-06T07:30:39.856Z,10.76
2017-10-06T07:31:39.821Z,10.63
2017-10-06T07:32:39.784Z,10.61
2017-10-06T07:33:39.752Z,10.60
2017-10-06T07:34:39.717Z,10.64
2017-10-06T07:35:39.680Z,10.57
2017-10-06T07:36:39.648Z,10.53
2017-10-06T07:37:39.612Z,10.49
2017-10-06T07:38:39.574Z,10.49
2017-10-06T07:39:39.543Z,10.57
2017-10-06T07:40:39.508Z,10.54
2017-10-06T07:41:39.474Z,10.53
2017-10-06T07:42:39.438Z,10.56
2017-10-06T07:43:39.406Z,10.51
2017-10-06T07:44:39.365Z,10.57
2017-10-06T07:45:39.333Z,10.61
2017-10-06T07:46:39.297Z,10.60
2017-10-06T07:47:39.263Z,10.63
2017-10-06T07:48:39.227Z,10.56
2017-10-06T07:49:39.192Z,10.68
2017-10-06T07:50:39.156Z,10.64
2017-10-06T07:51:39.121Z,10.68
2017-10-06T07:52:39.087Z,10.71
2017-10-06T07:53:39.052Z,10.72
2017-10-06T07:54:39.015Z,10.78
2017-10-06T07:55:38.980Z,10.81
2017-10-06T07:56:38.946Z,10.86
2017-10-06T07:57:38.912Z,11.18
2017-10-06T07:58:38.875Z,11.32
2017-10-06T07:59:38.841Z,11.66
2017-10-06T08:00:38.810Z,11.70
2017-10-06T08:01:38.775Z,11.80
2017-10-06T08:02:38.739Z,11.81
2017-10-06T08:03:38.707Z,11.81
2017-10-06T08:04:38.674Z,11.87
2017-10-06T08:05:38.641Z,11.91
2017-10-06T08:06:38.609Z,11.97
2017-10-06T08:07:38.578Z,12.06
2017-10-06T08:08:38.544Z,12.40
2017-10-06T08:09:38.512Z,12.58
2017-10-06T08:10:38.480Z,12.85
2017-10-06T08:11:38.449Z,13.00
2017-10-06T08:12:38.416Z,13.08
2017-10-06T08:13:38.387Z,13.39
2017-10-06T08:14:38.358Z,13.67
2017-10-06T08:15:38.328Z,13.85
2017-10-06T08:16:38.298Z,13.79
2017-10-06T08:17:38.269Z,13.85
2017-10-06T08:18:38.240Z,13.86
2017-10-06T08:19:38.211Z,14.12
2017-10-06T08:20:38.182Z,14.11
2017-10-06T08:21:38.154Z,14.08
2017-10-06T08:22:38.126Z,13.99
2017-10-06T08:23:38.098Z,14.22
2017-10-06T08:24:38.067Z,14.22
2017-10-06T08:25:38.041Z,14.12
2017-10-06T08:26:38.021Z,14.15
2017-10-06T08:27:37.986Z,13.96
2017-10-06T08:28:37.955Z,13.93
2017-10-06T08:29:37.927Z,14.11
2017-10-06T08:30:37.898Z,14.41
2017-10-06T08:31:37.870Z,14.48
2017-10-06T08:32:37.843Z,14.60
2017-10-06T08:33:37.812Z,14.47
2017-10-06T08:34:37.783Z,14.37
2017-10-06T08:35:37.759Z,14.32
2017-10-06T08:36:37.731Z,14.26
2017-10-06T08:37:37.697Z,14.12
2017-10-06T08:38:37.668Z,14.05
2017-10-06T08:39:37.637Z,13.90
2017-10-06T08:40:37.610Z,13.65
2017-10-06T08:41:37.580Z,13.53
2017-10-06T08:42:37.550Z,13.38
2017-10-06T08:43:37.518Z,13.44
2017-10-06T08:44:37.487Z,13.30
2017-10-06T08:45:37.457Z,13.08
2017-10-06T08:46:37.426Z,13.15
2017-10-06T08:47:37.394Z,13.12
2017-10-06T08:48:37.365Z,13.25
2017-10-06T08:49:37.333Z,13.16
2017-10-06T08:50:37.301Z,13.05
2017-10-06T08:51:37.268Z,13.04
2017-10-06T08:52:37.240Z,13.05
2017-10-06T08:53:37.205Z,13.16
2017-10-06T08:54:37.176Z,13.15
2017-10-06T08:55:37.142Z,13.08
2017-10-06T08:56:37.113Z,13.05
2017-10-06T08:57:37.079Z,13.15
2017-10-06T08:58:37.046Z,13.04
2017-10-06T08:59:37.015Z,13.08
2017-10-06T09:00:36.981Z,13.03
2017-10-06T09:01:36.950Z,12.95
2017-10-06T09:02:36.922Z,12.82
2017-10-06T09:03:36.887Z,12.85
2017-10-06T09:04:36.862Z,12.85
2017-10-06T09:05:36.821Z,12.94
2017-10-06T09:06:36.786Z,13.11
2017-10-06T09:07:36.757Z,13.15
2017-10-06T09:08:36.724Z,13.11
2017-10-06T09:09:36.692Z,13.08
2017-10-06T09:10:36.657Z,13.09
2017-10-06T09:11:36.624Z,13.04
2017-10-06T09:12:36.593Z,13.12
2017-10-06T09:13:36.560Z,13.08
2017-10-06T09:14:36.526Z,13.01
2017-10-06T09:15:36.494Z,13.03
2017-10-06T09:16:36.461Z,12.95
2017-10-06T09:17:36.429Z,12.85
2017-10-06T09:18:36.396Z,12.85
2017-10-06T09:19:36.362Z,12.87
2017-10-06T09:20:36.331Z,12.85
2017-10-06T09:21:36.299Z,12.86
2017-10-06T09:22:36.264Z,12.95
2017-10-06T09:23:36.232Z,12.91
2017-10-06T09:24:36.200Z,12.90
2017-10-06T09:25:36.169Z,12.95
2017-10-06T09:26:36.133Z,12.87
2017-10-06T09:27:36.100Z,12.86
2017-10-06T09:28:36.069Z,12.85
2017-10-06T09:29:36.034Z,12.90
2017-10-06T09:30:36.003Z,12.83
2017-10-06T09:31:35.971Z,12.90
2017-10-06T09:32:35.936Z,12.80
2017-10-06T09:33:35.904Z,12.86
2017-10-06T09:34:35.872Z,12.83
2017-10-06T09:35:35.840Z,12.85
2017-10-06T09:36:35.804Z,12.87
2017-10-06T09:37:35.772Z,12.87
2017-10-06T09:38:35.740Z,12.85
2017-10-06T09:39:35.706Z,12.85
2017-10-06T09:40:35.674Z,12.90
2017-10-06T09:41:35.640Z,12.90
2017-10-06T09:42:35.607Z,12.90
2017-10-06T09:43:35.575Z,12.87
2017-10-06T09:44:35.542Z,12.79
2017-10-06T09:45:35.508Z,12.76
2017-10-06T09:46:35.475Z,12.62
2017-10-06T09:47:35.442Z,12.62
2017-10-06T09:48:35.408Z,12.60
2017-10-06T09:49:35.376Z,12.49
2017-10-06T09:50:35.341Z,12.47
2017-10-06T09:51:35.310Z,12.37
2017-10-06T09:52:35.276Z,12.32
2017-10-06T09:53:35.242Z,12.20
2017-10-06T09:54:35.214Z,12.21
2017-10-06T09:55:35.173Z,12.15
2017-10-06T09:56:35.140Z,12.09
2017-10-06T09:57:35.109Z,12.06
2017-10-06T09:58:35.079Z,12.09
2017-10-06T09:59:35.039Z,11.97
2017-10-06T10:00:35.004Z,11.80
2017-10-06T10:01:34.974Z,11.81
2017-10-06T10:02:34.937Z,11.81
2017-10-06T10:03:34.904Z,11.84
2017-10-06T10:04:34.872Z,11.86
2017-10-06T10:05:34.838Z,11.77
2017-10-06T10:06:34.802Z,11.84
2017-10-06T10:07:34.769Z,11.95
2017-10-06T10:08:34.734Z,12.02
2017-10-06T10:09:34.701Z,11.99
2017-10-06T10:10:34.667Z,12.03
2017-10-06T10:11:34.633Z,11.99
2017-10-06T10:12:34.599Z,12.06
2017-10-06T10:13:34.564Z,12.07
2017-10-06T10:14:34.531Z,12.06
2017-10-06T10:15:34.500Z,12.10
2017-10-06T10:16:34.462Z,12.12
2017-10-06T10:17:34.428Z,12.15
2017-10-06T10:18:34.396Z,12.02
2017-10-06T10:19:34.361Z,12.02
2017-10-06T10:20:34.328Z,12.07
2017-10-06T10:21:34.293Z,12.06
2017-10-06T10:22:34.266Z,12.04
2017-10-06T10:23:34.226Z,12.00
2017-10-06T10:24:34.192Z,11.97
2017-10-06T10:25:34.158Z,11.84
2017-10-06T10:26:34.121Z,11.83
2017-10-06T10:27:34.089Z,11.86
2017-10-06T10:28:34.055Z,11.87
2017-10-06T10:29:34.020Z,11.78
2017-10-06T10:30:33.986Z,11.81
2017-10-06T10:31:33.952Z,11.75
2017-10-06T10:32:33.918Z,11.84
2017-10-06T10:33:33.884Z,11.84
2017-10-06T10:34:33.850Z,11.70
2017-10-06T10:35:33.815Z,11.69
2017-10-06T10:36:33.781Z,11.65
2017-10-06T10:37:33.748Z,11.57
2017-10-06T10:38:33.718Z,11.52
2017-10-06T10:39:33.678Z,11.50
2017-10-06T10:40:33.645Z,11.45
2017-10-06T10:41:33.608Z,11.52
2017-10-06T10:42:33.574Z,11.60
2017-10-06T10:43:33.541Z,11.81
2017-10-06T10:44:33.506Z,11.88
2017-10-06T10:45:33.471Z,12.06
2017-10-06T10:46:33.436Z,12.02
2017-10-06T10:47:33.403Z,12.28
2017-10-06T10:48:33.370Z,12.49
2017-10-06T10:49:33.341Z,12.76
2017-10-06T10:50:33.303Z,13.09
2017-10-06T10:51:33.268Z,13.72
2017-10-06T10:52:33.236Z,14.32
2017-10-06T10:53:33.205Z,14.77
2017-10-06T10:54:33.174Z,14.79
2017-10-06T10:55:33.144Z,14.70
2017-10-06T10:56:33.113Z,14.60
2017-10-06T10:57:33.083Z,14.53
2017-10-06T10:58:33.052Z,14.37
2017-10-06T10:59:33.022Z,14.73
2017-10-06T11:00:32.991Z,15.11
2017-10-06T11:01:32.961Z,15.43
2017-10-06T11:02:32.932Z,15.90
2017-10-06T11:03:32.905Z,16.23
2017-10-06T11:04:32.877Z,15.80
2017-10-06T11:05:32.846Z,15.39
2017-10-06T11:06:32.818Z,15.25
2017-10-06T11:07:32.789Z,15.19
2017-10-06T11:08:32.761Z,14.94
2017-10-06T11:09:32.733Z,15.46
2017-10-06T11:10:32.702Z,16.21
2017-10-06T11:11:32.675Z,16.65
2017-10-06T11:12:32.648Z,17.52
2017-10-06T11:13:32.621Z,18.13
2017-10-06T11:14:32.595Z,18.47
2017-10-06T11:15:32.572Z,18.92
2017-10-06T11:16:32.548Z,19.16
2017-10-06T11:17:32.523Z,19.62
2017-10-06T11:18:32.500Z,20.10
2017-10-06T11:19:32.476Z,20.51
2017-10-06T11:20:32.453Z,20.06
2017-10-06T11:21:32.429Z,19.64
2017-10-06T11:22:32.405Z,19.02
2017-10-06T11:23:32.384Z,18.43
2017-10-06T11:24:32.359Z,18.00
2017-10-06T11:25:32.336Z,17.34
2017-10-06T11:26:32.309Z,17.08
2017-10-06T11:27:32.285Z,16.81
2017-10-06T11:28:32.260Z,16.58
2017-10-06T11:29:32.234Z,16.47
2017-10-06T11:30:32.210Z,16.32
2017-10-06T11:31:32.181Z,16.16
2017-10-06T11:32:32.157Z,15.83
2017-10-06T11:33:32.133Z,16.26
2017-10-06T11:34:32.103Z,17.02
2017-10-06T11:35:32.074Z,17.27
2017-10-06T11:36:32.048Z,17.06
2017-10-06T11:37:32.021Z,16.76
2017-10-06T11:38:31.991Z,16.49
2017-10-06T11:39:31.966Z,16.56
2017-10-06T11:40:31.939Z,17.23
2017-10-06T11:41:31.913Z,17.74
2017-10-06T11:42:31.884Z,17.87
2017-10-06T11:43:31.859Z,17.60
2017-10-06T11:44:31.832Z,17.12
2017-10-06T11:45:31.808Z,16.97
2017-10-06T11:46:31.777Z,16.49
2017-10-06T11:47:31.750Z,16.49
2017-10-06T11:48:31.722Z,15.94
2017-10-06T11:49:31.692Z,15.75
2017-10-06T11:50:31.667Z,15.65
2017-10-06T11:51:31.637Z,15.49
2017-10-06T11:52:31.609Z,15.35
2017-10-06T11:53:31.580Z,15.17
2017-10-06T11:54:31.548Z,15.00
2017-10-06T11:55:31.519Z,15.06
2017-10-06T11:56:31.491Z,15.06
2017-10-06T11:57:31.464Z,15.18
2017-10-06T11:58:31.431Z,16.10
2017-10-06T11:59:31.401Z,16.24
2017-10-06T12:00:31.373Z,16.20
2017-10-06T12:01:31.346Z,16.12
2017-10-06T12:02:31.314Z,16.09
2017-10-06T12:03:31.285Z,15.98
2017-10-06T12:04:31.256Z,16.01
2017-10-06T12:05:31.227Z,15.62
2017-10-06T12:06:31.196Z,15.39
2017-10-06T12:07:31.159Z,15.11
2017-10-06T12:08:31.137Z,15.11
2017-10-06T12:09:31.105Z,15.04
2017-10-06T12:10:31.074Z,14.94
2017-10-06T12:11:31.045Z,14.97
2017-10-06T12:12:31.015Z,14.84
2017-10-06T12:13:30.984Z,14.62
2017-10-06T12:14:30.953Z,14.44
2017-10-06T12:15:30.923Z,14.44
2017-10-06T12:16:30.892Z,14.40
2017-10-06T12:17:30.861Z,14.32
2017-10-06T12:18:30.823Z,14.23
2017-10-06T12:19:30.799Z,14.15
2017-10-06T12:20:30.768Z,14.18
2017-10-06T12:21:30.735Z,14.22
2017-10-06T12:22:30.705Z,14.18
2017-10-06T12:23:30.672Z,14.22
2017-10-06T12:24:30.640Z,14.28
2017-10-06T12:25:30.607Z,14.33
2017-10-06T12:26:30.575Z,14.40
2017-10-06T12:27:30.564Z,14.50
2017-10-06T12:28:30.514Z,14.50
2017-10-06T12:29:30.481Z,14.47
2017-10-06T12:30:30.450Z,14.47
2017-10-06T12:31:30.418Z,14.50
2017-10-06T12:32:30.386Z,14.43
2017-10-06T12:33:30.356Z,14.48
2017-10-06T12:34:30.323Z,14.47
2017-10-06T12:35:31.098Z,14.53
2017-10-06T12:36:30.259Z,14.37
2017-10-06T12:37:30.229Z,14.37
2017-10-06T12:38:30.197Z,14.37
2017-10-06T12:39:30.164Z,14.26
2017-10-06T12:40:30.133Z,14.18
2017-10-06T12:41:30.106Z,13.74
2017-10-06T12:42:30.068Z,13.53
2017-10-06T12:43:30.037Z,13.22
2017-10-06T12:44:30.006Z,13.12
2017-10-06T12:45:29.971Z,13.16
2017-10-06T12:46:29.940Z,13.54
2017-10-06T12:47:29.905Z,13.93
2017-10-06T12:48:29.875Z,14.26
2017-10-06T12:49:29.844Z,14.43
2017-10-06T12:50:29.811Z,14.26
2017-10-06T12:51:29.781Z,14.14
2017-10-06T12:52:29.751Z,13.99
2017-10-06T12:53:29.717Z,13.83
2017-10-06T12:54:29.683Z,13.72
2017-10-06T12:55:29.655Z,13.65
2017-10-06T12:56:29.622Z,13.68
2017-10-06T12:57:29.592Z,13.70
2017-10-06T12:58:29.560Z,13.56
2017-10-06T12:59:29.527Z,13.70
2017-10-06T13:00:29.497Z,13.83
2017-10-06T13:01:29.468Z,13.87
2017-10-06T13:02:29.433Z,13.97
2017-10-06T13:03:29.402Z,13.92
2017-10-06T13:04:29.369Z,13.93
2017-10-06T13:05:29.338Z,13.85